Weather at Newcastle Aerodrome

Public forecast

Using degrees Celsius for public forecast. Weather courtesy of forecast.io.

Closest aviation weather report (METAR) to Newcastle Aerodrome

Closest report is Casement Air Base, 20.1 nm (37.3 km) NW. Retrieved 2020/12/02 12:30 UTC (14 seconds ago):

EIME 021230Z 25011KT 9999 FEW018 07/04 Q1017

Closest aviation forecast (TAF) to Newcastle Aerodrome

Closest forecast is Dublin Airport, 22.5 nm (41.7 km) NNW. Retrieved 2020/12/02 12:09 UTC (21 minutes ago):

TAF EIDW 021100Z 0212/0312 26013KT 9999 FEW015 SCT040 PROB40 TEMPO 0212/0220 25015G25KT -SHRA FEW020CB BECMG 0218/0220 23013KT TEMPO 0220/0307 24015G25KT 4000 SHRA BKN014 SCT020CB PROB30 TEMPO 0302/0311 BKN008 BECMG 0310/0312 29009KT